Time;durP1;ratioP1;P1;durP2;ratioP2;P2;SDS_P1;SDS_P2;PMS_P1;PMS_P2;Temp;Humidity;BMP_temperature;BMP_pressure;BME280_temperature;BME280_humidity;BME280_pressure;Samples;Min_cycle;Max_cycle;Signal;HPM_P1;HPM_P2
2023/09/20 00:02:13;;;;;;;;;;;;;;;17.07;100.00;100603.59;4890337;29;20024;-93
2023/09/20 00:04:39;;;;;;;12.60;2.15;;;;;;;17.03;100.00;100607.72;4931100;29;19910;-93
2023/09/20 00:07:08;;;;;;;8.88;2.10;;;;;;;17.00;100.00;100606.13;4906015;29;20504;-94
2023/09/20 00:09:35;;;;;;;8.27;1.50;;;;;;;16.96;100.00;100607.53;4931230;29;20028;-92
2023/09/20 00:12:00;;;;;;;14.63;1.98;;;;;;;16.92;100.00;100608.88;4911126;29;20038;-94
2023/09/20 00:14:26;;;;;;;5.10;1.63;;;;;;;16.90;100.00;100597.13;4906926;29;20046;-93
2023/09/20 00:16:52;;;;;;;7.55;1.65;;;;;;;16.85;100.00;100605.06;4916316;29;20039;-93
2023/09/20 00:19:19;;;;;;;11.20;1.85;;;;;;;16.84;100.00;100611.59;4927928;29;20054;-93
2023/09/20 00:21:46;;;;;;;9.80;1.83;;;;;;;16.81;100.00;100609.19;4935864;29;20038;-93
2023/09/20 00:24:11;;;;;;;7.60;2.15;;;;;;;16.78;100.00;100615.91;4932843;29;20507;-94
2023/09/20 00:26:37;;;;;;;7.75;2.05;;;;;;;16.76;100.00;100614.34;4901033;29;20067;-93
2023/09/20 00:29:06;;;;;;;10.00;1.88;;;;;;;16.69;100.00;100620.56;4908039;29;20099;-93
2023/09/20 00:31:32;;;;;;;11.10;1.73;;;;;;;16.65;100.00;100613.63;4908441;29;20024;-93
2023/09/20 00:33:58;;;;;;;10.05;2.28;;;;;;;16.65;100.00;100607.25;4912930;29;20047;-93
2023/09/20 00:36:24;;;;;;;11.05;1.90;;;;;;;16.63;100.00;100609.31;4904222;29;20191;-94
2023/09/20 00:38:51;;;;;;;7.93;2.05;;;;;;;16.62;100.00;100608.44;4888267;29;20035;-93
2023/09/20 00:41:17;;;;;;;12.15;2.05;;;;;;;16.59;100.00;100606.00;4919712;29;20490;-93
2023/09/20 00:43:42;;;;;;;12.13;1.85;;;;;;;16.51;100.00;100609.59;4899764;29;20191;-92
2023/09/20 00:46:09;;;;;;;15.68;1.83;;;;;;;16.54;100.00;100613.91;4914735;29;20039;-93
2023/09/20 00:48:38;;;;;;;12.95;1.88;;;;;;;16.47;100.00;100601.81;4904309;29;20058;-93
2023/09/20 00:51:05;;;;;;;7.05;1.88;;;;;;;16.50;100.00;100616.16;4905386;29;20038;-93
2023/09/20 00:53:35;;;;;;;6.10;1.85;;;;;;;16.50;100.00;100598.72;4904706;29;20556;-94
2023/09/20 00:56:03;;;;;;;9.05;2.28;;;;;;;16.51;100.00;100600.44;4891016;29;20467;-93
2023/09/20 00:58:34;;;;;;;4.85;1.88;;;;;;;16.46;100.00;100594.53;4914113;29;20031;-93
2023/09/20 01:01:00;;;;;;;7.40;1.90;;;;;;;16.51;100.00;100594.91;4930297;29;20034;-93
2023/09/20 01:03:28;;;;;;;10.13;1.92;;;;;;;16.49;100.00;100586.78;4908706;29;20182;-93
2023/09/20 01:05:54;;;;;;;11.52;1.90;;;;;;;16.50;100.00;100588.53;4931042;29;20035;-94
2023/09/20 01:08:20;;;;;;;6.68;2.10;;;;;;;16.54;100.00;100594.56;4915871;29;20066;-94
2023/09/20 01:10:48;;;;;;;6.88;2.10;;;;;;;16.52;100.00;100594.75;4895008;29;20471;-93
2023/09/20 01:13:15;;;;;;;9.55;2.15;;;;;;;16.48;100.00;100598.03;4897329;29;20028;-93
2023/09/20 01:15:41;;;;;;;13.98;1.80;;;;;;;16.46;100.00;100591.78;4891429;29;20044;-94
2023/09/20 01:18:07;;;;;;;11.27;2.78;;;;;;;16.42;100.00;100588.50;4922751;29;20082;-93
2023/09/20 01:20:35;;;;;;;8.48;2.40;;;;;;;16.38;100.00;100588.97;4915292;29;20114;-94
2023/09/20 01:23:02;;;;;;;6.55;1.70;;;;;;;16.48;100.00;100595.25;4909957;29;20038;-93
2023/09/20 01:25:29;;;;;;;11.77;1.65;;;;;;;16.42;100.00;100594.00;4915551;29;20114;-94
2023/09/20 01:27:59;;;;;;;13.10;2.00;;;;;;;16.43;100.00;100606.81;4939802;29;20031;-93
2023/09/20 01:30:30;;;;;;;7.22;2.25;;;;;;;16.42;100.00;100607.84;4950430;29;20047;-93
2023/09/20 01:32:57;;;;;;;9.90;1.75;;;;;;;16.37;100.00;100598.31;4935248;29;20127;-93
2023/09/20 01:35:29;;;;;;;5.82;1.67;;;;;;;16.39;100.00;100602.63;4925727;29;20089;-94
2023/09/20 01:37:55;;;;;;;7.28;2.28;;;;;;;16.40;100.00;100601.63;4940947;29;20054;-92
2023/09/20 01:40:26;;;;;;;8.75;1.88;;;;;;;16.33;100.00;100597.75;4922728;29;20047;-91
2023/09/20 01:42:53;;;;;;;12.98;2.05;;;;;;;16.29;100.00;100594.47;4939035;29;20055;-92
2023/09/20 01:45:20;;;;;;;7.70;1.98;;;;;;;16.29;100.00;100600.00;4945872;29;20038;-92
2023/09/20 01:47:51;;;;;;;12.18;2.03;;;;;;;16.35;100.00;100592.97;4944801;29;20038;-93
2023/09/20 01:50:20;;;;;;;13.85;2.63;;;;;;;16.35;100.00;100587.44;4906473;29;20115;-92
2023/09/20 01:52:51;;;;;;;8.38;2.03;;;;;;;16.39;100.00;100588.81;4941249;29;20051;-92
2023/09/20 01:55:20;;;;;;;9.77;2.10;;;;;;;16.45;100.00;100577.09;4922324;29;20035;-92
2023/09/20 01:57:48;;;;;;;12.55;1.92;;;;;;;16.49;100.00;100570.19;4921951;29;20039;-92
2023/09/20 02:00:36;;;;;;;12.30;1.90;;;;;;;16.48;100.00;100559.34;4918828;29;20031;-93
2023/09/20 02:03:19;;;;;;;9.35;1.90;;;;;;;16.50;100.00;100560.88;4915623;29;20127;-93
2023/09/20 02:05:48;;;;;;;11.38;2.10;;;;;;;16.52;100.00;100563.47;4951169;29;20023;-93
2023/09/20 02:08:16;;;;;;;14.73;2.40;;;;;;;16.52;100.00;100574.53;4949914;29;20098;-93
2023/09/20 02:10:42;;;;;;;11.55;2.25;;;;;;;16.53;100.00;100565.22;4909102;29;20024;-93
2023/09/20 02:13:08;;;;;;;6.65;1.88;;;;;;;16.50;100.00;100548.97;4938336;29;20031;-94
2023/09/20 02:15:35;;;;;;;11.45;1.90;;;;;;;16.50;100.00;100560.03;4930305;29;20044;-93
2023/09/20 02:18:05;;;;;;;8.95;1.73;;;;;;;16.49;100.00;100559.13;4913095;29;20035;-93
2023/09/20 02:20:36;;;;;;;9.98;3.00;;;;;;;16.48;100.00;100546.38;4918864;29;20141;-94
2023/09/20 02:23:03;;;;;;;10.95;2.50;;;;;;;16.48;100.00;100557.44;4938135;29;20073;-94
2023/09/20 02:25:29;;;;;;;15.13;2.00;;;;;;;16.47;100.00;100560.34;4924224;29;20027;-94
2023/09/20 02:27:59;;;;;;;11.40;2.78;;;;;;;16.49;100.00;100558.28;4922076;29;20031;-92
2023/09/20 02:30:32;;;;;;;13.75;2.85;;;;;;;16.39;100.00;100554.81;4903018;29;20086;-81
2023/09/20 02:32:58;;;;;;;;;;;;;;;16.37;100.00;100557.72;4938533;29;20039;-81
2023/09/20 02:35:30;;;;;;;11.07;2.20;;;;;;;16.35;100.00;100552.38;4934307;29;19954;-81
2023/09/20 02:37:57;;;;;;;10.43;3.05;;;;;;;16.37;100.00;100551.34;4911802;29;20040;-81
2023/09/20 02:40:23;;;;;;;10.50;2.15;;;;;;;16.37;100.00;100554.97;4912884;29;20027;-82
2023/09/20 02:42:59;;;;;;;12.35;2.53;;;;;;;16.31;100.00;100545.44;4876615;29;20043;-82
2023/09/20 02:45:33;;;;;;;9.43;2.45;;;;;;;16.32;100.00;100549.94;4898193;29;20040;-82
2023/09/20 02:47:59;;;;;;;8.38;1.88;;;;;;;16.28;100.00;100550.44;4889358;29;20040;-81
2023/09/20 02:50:25;;;;;;;8.38;2.00;;;;;;;16.26;100.00;100542.31;4880162;29;20040;-81
2023/09/20 02:52:52;;;;;;;12.90;2.42;;;;;;;16.25;100.00;100543.34;4924713;29;20175;-82
2023/09/20 02:55:20;;;;;;;10.30;2.25;;;;;;;16.24;100.00;100538.00;4897153;29;20031;-81
2023/09/20 02:57:54;;;;;;;6.82;2.50;;;;;;;16.21;100.00;100541.94;4931702;29;20047;-82
2023/09/20 03:00:22;;;;;;;13.77;2.33;;;;;;;16.20;100.00;100542.09;4927782;29;20024;-81
2023/09/20 03:02:52;;;;;;;8.32;2.10;;;;;;;16.14;100.00;100533.47;4913709;29;20067;-81
2023/09/20 03:05:24;;;;;;;14.38;2.30;;;;;;;16.13;100.00;100534.50;4906462;29;20043;-82
2023/09/20 03:07:50;;;;;;;15.95;2.40;;;;;;;16.05;100.00;100530.81;4912047;29;20083;-81
2023/09/20 03:10:21;;;;;;;7.20;2.33;;;;;;;16.09;100.00;100530.31;4926192;29;20039;-81
2023/09/20 03:12:48;;;;;;;8.88;2.40;;;;;;;16.06;100.00;100513.22;4909272;29;20078;-81
2023/09/20 03:15:17;;;;;;;8.23;2.28;;;;;;;16.02;100.00;100507.19;4907855;29;20039;-81
2023/09/20 03:17:48;;;;;;;12.25;2.90;;;;;;;15.99;100.00;100508.34;4915332;29;20115;-81
2023/09/20 03:20:23;;;;;;;8.05;2.28;;;;;;;15.98;100.00;100514.91;4905069;29;20028;-81
2023/09/20 03:23:00;;;;;;;11.68;2.25;;;;;;;15.95;100.00;100518.03;4919893;29;20122;-81
2023/09/20 03:25:35;;;;;;;9.52;2.08;;;;;;;15.96;100.00;100510.59;4924003;29;20059;-82
2023/09/20 03:28:02;;;;;;;8.02;2.38;;;;;;;15.96;100.00;100510.59;4919954;29;20047;-80
2023/09/20 03:30:28;;;;;;;16.05;2.55;;;;;;;15.90;100.00;100505.72;4907991;29;20031;-82
2023/09/20 03:32:53;;;;;;;11.95;2.70;;;;;;;15.89;100.00;100503.97;4890413;29;20052;-81
2023/09/20 03:35:21;;;;;;;13.25;2.55;;;;;;;15.87;100.00;100509.69;4905395;29;20031;-82
2023/09/20 03:37:47;;;;;;;9.88;2.30;;;;;;;15.92;100.00;100499.03;4927198;29;20515;-81
2023/09/20 03:40:19;;;;;;;7.47;1.90;;;;;;;15.91;100.00;100501.94;4911174;29;20028;-81
2023/09/20 03:42:46;;;;;;;14.15;2.20;;;;;;;15.96;100.00;100500.41;4933875;29;20126;-95
2023/09/20 03:45:16;;;;;;;8.68;2.40;;;;;;;15.93;100.00;100500.72;4888328;29;20031;-93
2023/09/20 03:47:42;;;;;;;10.60;3.38;;;;;;;15.93;100.00;100497.97;4904895;29;20132;-94
2023/09/20 03:50:12;;;;;;;25.48;3.10;;;;;;;15.92;100.00;100495.38;4898135;29;20551;-94
2023/09/20 03:52:39;;;;;;;11.30;2.75;;;;;;;15.95;100.00;100495.03;4901166;29;20039;-94
2023/09/20 03:55:09;;;;;;;13.70;2.38;;;;;;;15.96;100.00;100488.50;4910644;29;20027;-93
2023/09/20 03:57:40;;;;;;;10.05;2.20;;;;;;;15.92;100.00;100481.56;4923513;29;20027;-93
2023/09/20 04:00:07;;;;;;;8.45;2.17;;;;;;;15.90;100.00;100478.13;4931722;29;20034;-93
2023/09/20 04:02:34;;;;;;;13.95;2.80;;;;;;;15.89;100.00;100481.91;4942519;29;20483;-94
2023/09/20 04:05:10;;;;;;;8.88;2.17;;;;;;;15.95;100.00;100495.94;4913342;29;20114;-92
2023/09/20 04:07:36;;;;;;;16.45;2.90;;;;;;;15.93;100.00;100494.34;4939784;28;20018;-95
2023/09/20 04:10:02;;;;;;;10.65;2.95;;;;;;;15.94;100.00;100498.84;4925459;29;20032;-93
2023/09/20 04:12:28;;;;;;;12.50;2.63;;;;;;;15.92;100.00;100493.50;4927404;29;20023;-94
2023/09/20 04:14:54;;;;;;;5.40;2.20;;;;;;;15.95;100.00;100489.53;4902419;29;20047;-94
2023/09/20 04:17:25;;;;;;;8.05;1.92;;;;;;;15.96;100.00;100482.97;4930388;29;20127;-95
2023/09/20 04:19:53;;;;;;;14.52;2.67;;;;;;;15.93;100.00;100480.53;4922047;29;20150;-93
2023/09/20 04:22:25;;;;;;;12.02;2.22;;;;;;;15.93;100.00;100477.78;4932851;29;20034;-96
2023/09/20 04:37:47;;;;;;;8.13;3.35;;;;;;;15.80;100.00;100475.47;5292059;23;20058;-92
2023/09/20 04:40:13;;;;;;;14.30;2.90;;;;;;;15.78;100.00;100475.63;4953439;29;20023;-92
2023/09/20 04:42:39;;;;;;;13.77;2.35;;;;;;;15.76;100.00;100476.84;4936260;29;20152;-92
2023/09/20 04:45:07;;;;;;;7.15;2.50;;;;;;;15.72;100.00;100469.88;4933109;29;20044;-93
2023/09/20 04:47:37;;;;;;;8.90;2.33;;;;;;;15.67;100.00;100466.75;4939687;29;20027;-90
2023/09/20 04:50:06;;;;;;;4.28;1.98;;;;;;;15.58;100.00;100458.44;4906683;29;20043;-93
2023/09/20 04:52:33;;;;;;;7.90;2.63;;;;;;;15.51;100.00;100457.38;4932898;29;20035;-92
2023/09/20 04:55:01;;;;;;;5.63;2.55;;;;;;;15.51;100.00;100462.00;4962686;29;20031;-93
2023/09/20 04:57:26;;;;;;;13.18;2.50;;;;;;;15.47;100.00;100455.94;4920233;28;20117;-93
2023/09/20 04:59:52;;;;;;;10.70;3.90;;;;;;;15.43;100.00;100460.09;4920030;29;20059;-94
2023/09/20 05:02:18;;;;;;;8.32;2.70;;;;;;;15.42;100.00;100463.84;4921608;29;20035;-94
2023/09/20 05:04:44;;;;;;;15.65;3.30;;;;;;;15.39;100.00;100458.66;4940620;29;20024;-93
2023/09/20 05:07:09;;;;;;;11.65;2.78;;;;;;;15.36;100.00;100461.75;4914821;28;20035;-94
2023/09/20 05:09:35;;;;;;;8.30;2.90;;;;;;;15.33;100.00;100456.53;4935115;29;20039;-94
2023/09/20 05:12:02;;;;;;;13.98;3.40;;;;;;;15.28;100.00;100458.94;4940034;29;20035;-94
2023/09/20 05:14:29;;;;;;;10.45;3.25;;;;;;;15.29;100.00;100461.53;4941217;28;20034;-93
2023/09/20 05:16:54;;;;;;;7.45;2.75;;;;;;;15.24;100.00;100455.63;4928086;29;20050;-93
2023/09/20 05:19:24;;;;;;;11.55;3.17;;;;;;;15.21;100.00;100458.72;4924894;28;20035;-93
2023/09/20 05:21:50;;;;;;;7.78;2.65;;;;;;;15.24;100.00;100461.16;4940785;29;20055;-94
2023/09/20 05:24:17;;;;;;;15.93;3.42;;;;;;;15.22;100.00;100458.56;4947564;29;20506;-94
2023/09/20 05:26:43;;;;;;;9.43;3.17;;;;;;;15.20;100.00;100459.72;4945919;29;20058;-96
2023/09/20 05:29:09;;;;;;;7.50;3.00;;;;;;;15.15;100.00;100451.97;4925246;28;20027;-96
2023/09/20 05:31:36;;;;;;;5.68;2.55;;;;;;;15.16;100.00;100445.41;4925034;29;20053;-95
2023/09/20 05:34:02;;;;;;;14.00;3.10;;;;;;;15.13;100.00;100450.38;4910505;29;20052;-95
2023/09/20 05:36:28;;;;;;;14.65;3.40;;;;;;;15.13;100.00;100445.72;4946766;28;20046;-95
2023/09/20 05:38:54;;;;;;;9.77;3.38;;;;;;;15.16;100.00;100450.91;4930809;29;20039;-96
2023/09/20 05:41:20;;;;;;;10.90;2.72;;;;;;;15.14;100.00;100439.19;4950391;28;20351;-96
2023/09/20 05:43:46;;;;;;;11.75;3.17;;;;;;;15.20;100.00;100456.97;4923198;28;20035;-96
2023/09/20 05:46:13;;;;;;;12.00;3.38;;;;;;;15.30;100.00;100457.75;4934532;29;20039;-94
2023/09/20 05:48:41;;;;;;;10.43;3.05;;;;;;;15.42;100.00;100458.34;4915081;28;20042;-94
2023/09/20 05:51:14;;;;;;;14.30;2.92;;;;;;;15.47;100.00;100453.19;4916995;29;20028;-90
2023/09/20 05:53:39;;;;;;;16.38;3.33;;;;;;;15.38;100.00;100459.69;4897773;29;20448;-93
2023/09/20 05:56:08;;;;;;;6.00;2.42;;;;;;;15.38;100.00;100460.56;4911248;29;20033;-94
2023/09/20 05:58:34;;;;;;;9.88;3.13;;;;;;;15.38;100.00;100465.19;4938424;29;20043;-95
2023/09/20 06:01:00;;;;;;;16.55;3.22;;;;;;;15.43;100.00;100463.69;4931330;29;20035;-79
2023/09/20 06:03:26;;;;;;;13.07;3.30;;;;;;;15.45;100.00;100458.03;4920597;29;20032;-79
2023/09/20 06:05:51;;;;;;;9.88;3.13;;;;;;;15.56;100.00;100462.38;4957267;28;20030;-80
2023/09/20 06:08:17;;;;;;;9.60;2.97;;;;;;;15.56;100.00;100457.75;4917118;28;20059;-82
2023/09/20 06:10:44;;;;;;;11.43;3.15;;;;;;;15.58;100.00;100457.56;4922458;29;20066;-82
2023/09/20 06:13:10;;;;;;;11.13;3.13;;;;;;;15.57;100.00;100453.94;4950882;29;20031;-84
2023/09/20 06:15:37;;;;;;;7.38;3.20;;;;;;;15.65;100.00;100457.78;4911731;29;20122;-84
2023/09/20 06:18:03;;;;;;;9.70;3.08;;;;;;;15.78;100.00;100461.84;4930977;29;20032;-80
2023/09/20 06:20:28;;;;;;;7.63;3.10;;;;;;;15.78;100.00;100458.22;4932002;29;20038;-82
2023/09/20 06:22:56;;;;;;;9.63;3.13;;;;;;;15.84;100.00;100449.28;4917904;29;20047;-83
2023/09/20 06:25:22;;;;;;;17.10;3.60;;;;;;;15.94;100.00;100441.72;4957554;28;20110;-84
2023/09/20 06:27:55;;;;;;;11.57;3.78;;;;;;;16.14;100.00;100450.59;4930309;29;20031;-81
2023/09/20 06:30:21;;;;;;;9.45;3.30;;;;;;;16.17;100.00;100450.25;4931602;29;20412;-80
2023/09/20 06:32:47;;;;;;;11.73;3.42;;;;;;;16.34;100.00;100453.06;4950362;28;20031;-82
2023/09/20 06:35:19;;;;;;;8.82;2.85;;;;;;;16.46;100.00;100453.59;4929904;29;20031;-82
2023/09/20 06:37:47;;;;;;;9.27;3.15;;;;;;;16.52;100.00;100450.16;4921066;29;20076;-81
2023/09/20 06:40:22;;;;;;;9.13;4.00;;;;;;;16.60;100.00;100449.31;4933701;29;20085;-82
2023/09/20 06:42:50;;;;;;;10.63;2.90;;;;;;;16.76;100.00;100448.44;4925272;29;20042;-79
2023/09/20 06:45:17;;;;;;;8.32;3.63;;;;;;;16.70;100.00;100438.94;4910016;29;20078;-79
2023/09/20 06:47:43;;;;;;;6.85;3.25;;;;;;;16.93;100.00;100446.59;4942800;28;20027;-80
2023/09/20 06:50:09;;;;;;;13.00;3.38;;;;;;;17.09;100.00;100454.88;4928885;29;20070;-80
2023/09/20 06:52:34;;;;;;;13.30;3.85;;;;;;;17.02;100.00;100460.25;4918589;28;20479;-79
2023/09/20 06:55:00;;;;;;;10.07;2.90;;;;;;;17.02;100.00;100453.84;4904262;29;20074;-80
2023/09/20 06:57:25;;;;;;;17.88;3.35;;;;;;;17.20;100.00;100445.34;4916740;28;20517;-80
2023/09/20 06:59:54;;;;;;;9.38;3.03;;;;;;;16.98;100.00;100444.19;4901246;29;20131;-80
2023/09/20 07:02:20;;;;;;;5.80;3.13;;;;;;;16.97;100.00;100440.56;4905107;29;20578;-80
2023/09/20 07:04:47;;;;;;;8.07;2.88;;;;;;;17.11;100.00;100447.28;4911212;29;20118;-80
2023/09/20 07:07:13;;;;;;;10.18;3.17;;;;;;;17.22;100.00;100446.06;4927044;28;20031;-80
2023/09/20 07:09:38;;;;;;;8.57;2.72;;;;;;;17.18;100.00;100448.28;4919558;29;20027;-80
2023/09/20 07:12:08;;;;;;;6.97;2.33;;;;;;;17.44;100.00;100447.22;4911729;29;20035;-80
2023/09/20 07:14:34;;;;;;;7.90;2.70;;;;;;;17.50;100.00;100442.91;4927004;29;20024;-80
2023/09/20 07:17:00;;;;;;;9.38;2.80;;;;;;;17.63;100.00;100440.44;4913525;29;20094;-80
2023/09/20 07:19:29;;;;;;;7.18;2.72;;;;;;;17.58;100.00;100442.88;4914163;29;20055;-79
2023/09/20 07:21:56;;;;;;;7.20;2.58;;;;;;;17.56;100.00;100431.97;4927203;29;20032;-79
2023/09/20 07:24:24;;;;;;;8.70;3.35;;;;;;;17.60;100.00;100443.56;4926095;29;20486;-79
2023/09/20 07:26:55;;;;;;;6.38;2.78;;;;;;;17.79;100.00;100451.44;4928332;28;20410;-80
2023/09/20 07:29:21;;;;;;;12.80;2.65;;;;;;;18.04;100.00;100437.53;4932250;29;20130;-78
2023/09/20 07:31:48;;;;;;;7.80;2.15;;;;;;;18.27;100.00;100445.03;4934353;29;20119;-80
2023/09/20 07:34:15;;;;;;;13.45;2.42;;;;;;;18.18;100.00;100436.75;4950707;28;20122;-78
2023/09/20 07:36:43;;;;;;;7.90;2.10;;;;;;;18.29;100.00;100424.38;4927342;29;20533;-79
2023/09/20 07:39:13;;;;;;;8.80;2.65;;;;;;;18.07;100.00;100419.66;4941348;29;20050;-78
2023/09/20 07:41:48;;;;;;;9.52;2.40;;;;;;;18.02;100.00;100422.09;4922436;29;20031;-78
2023/09/20 07:44:13;;;;;;;8.18;2.13;;;;;;;18.26;100.00;100424.75;4933713;29;20042;-79
2023/09/20 07:46:39;;;;;;;7.70;2.47;;;;;;;18.37;100.00;100420.69;4903753;29;20027;-81
2023/09/20 07:49:12;;;;;;;5.90;2.13;;;;;;;18.50;100.00;100425.66;4911701;29;20038;-80
2023/09/20 07:51:39;;;;;;;4.82;2.45;;;;;;;18.50;100.00;100433.97;4925815;29;20043;-79
2023/09/20 07:54:10;;;;;;;8.00;2.42;;;;;;;18.39;100.00;100440.78;4940953;29;20031;-79
2023/09/20 07:56:37;;;;;;;7.50;2.17;;;;;;;18.53;100.00;100433.59;4918250;29;20043;-79
2023/09/20 07:59:06;;;;;;;10.48;2.47;;;;;;;18.74;100.00;100432.91;4935163;29;20024;-79
2023/09/20 08:01:32;;;;;;;7.43;2.50;;;;;;;18.76;100.00;100435.47;4945716;28;20115;-79
2023/09/20 08:03:59;;;;;;;6.93;1.80;;;;;;;19.06;100.00;100439.25;4943118;28;20043;-79
2023/09/20 08:06:28;;;;;;;3.88;1.80;;;;;;;18.97;100.00;100434.81;4951113;29;20042;-79
2023/09/20 08:08:55;;;;;;;9.32;2.25;;;;;;;19.18;100.00;100434.13;4931380;29;20023;-79
2023/09/20 08:11:21;;;;;;;10.43;2.58;;;;;;;19.15;100.00;100448.38;4949007;29;20036;-79
2023/09/20 08:13:52;;;;;;;6.30;2.47;;;;;;;18.96;100.00;100438.66;4930648;29;20372;-79
2023/09/20 08:16:18;;;;;;;9.90;2.33;;;;;;;18.91;100.00;100437.31;4954646;29;20023;-79
2023/09/20 08:21:32;;;;;;;7.32;2.35;;;;;;;19.13;100.00;100440.22;4936368;29;20062;-80
2023/09/20 09:00:00;;;;;;;6.28;2.00;;;;;;;20.26;100.00;100463.25;4940305;28;20150;-80
2023/09/20 09:02:27;;;;;;;8.75;2.10;;;;;;;20.40;100.00;100464.31;4939167;29;20050;-81
2023/09/20 09:04:53;;;;;;;9.15;1.88;;;;;;;20.82;100.00;100459.84;4943704;29;20036;-81
2023/09/20 09:07:23;;;;;;;5.50;1.95;;;;;;;20.93;100.00;100462.09;4932218;29;20032;-80
2023/09/20 09:09:49;;;;;;;6.95;2.10;;;;;;;21.02;100.00;100462.84;4910375;29;20491;-81
2023/09/20 09:12:15;;;;;;;8.32;2.03;;;;;;;20.79;100.00;100460.28;4932955;28;20126;-81
2023/09/20 09:14:42;;;;;;;8.45;2.10;;;;;;;20.46;100.00;100465.41;4930742;29;20106;-80
2023/09/20 09:17:09;;;;;;;9.38;1.88;;;;;;;20.53;100.00;100461.66;4927627;29;20031;-80
2023/09/20 09:19:37;;;;;;;2.72;1.63;;;;;;;20.65;100.00;100448.13;4945492;28;20034;-81
2023/09/20 09:22:03;;;;;;;5.80;1.88;;;;;;;20.63;100.00;100455.81;4935876;28;20035;-80
2023/09/20 09:24:43;;;;;;;7.25;1.80;;;;;;;21.11;100.00;100464.41;4942881;29;20054;-81
2023/09/20 09:27:09;;;;;;;4.72;1.90;;;;;;;21.24;100.00;100446.97;4949401;29;20036;-81
2023/09/20 09:29:35;;;;;;;6.70;1.63;;;;;;;21.45;100.00;100446.06;4937342;29;20049;-80
2023/09/20 10:41:10;;;;;;;3.95;1.13;;;;;;;20.83;100.00;100399.50;5694719;23;20055;-82
2023/09/20 10:43:35;;;;;;;4.05;1.00;;;;;;;20.85;100.00;100394.59;4948451;28;20043;-80
2023/09/20 10:46:07;;;;;;;7.18;1.10;;;;;;;20.73;100.00;100385.94;4930159;28;20113;-80
2023/09/20 10:48:32;;;;;;;4.15;1.20;;;;;;;20.81;100.00;100388.56;4926210;29;20043;-81
2023/09/20 10:50:59;;;;;;;4.43;0.90;;;;;;;20.89;100.00;100385.66;4929016;29;20490;-80
2023/09/20 10:54:03;;;;;;;4.53;1.10;;;;;;;20.97;100.00;100379.06;4927352;29;20123;-80
2023/09/20 10:56:54;;;;;;;4.55;1.00;;;;;;;20.91;100.00;100377.09;4881560;29;20036;-80
2023/09/20 10:59:31;;;;;;;5.07;1.20;;;;;;;20.97;100.00;100387.41;4940535;29;20201;-81
2023/09/20 11:02:00;;;;;;;5.03;1.20;;;;;;;21.08;100.00;100384.06;4941891;29;20023;-80
2023/09/20 11:04:28;;;;;;;4.65;0.98;;;;;;;21.05;100.00;100380.84;4934557;29;20483;-81
2023/09/20 11:06:59;;;;;;;4.28;1.17;;;;;;;21.05;100.00;100389.19;4914421;29;20039;-81
2023/09/20 11:09:30;;;;;;;7.75;1.40;;;;;;;21.06;100.00;100377.84;4946042;28;20091;-80
2023/09/20 11:11:58;;;;;;;7.65;1.38;;;;;;;21.24;100.00;100373.72;4942224;29;20083;-81
2023/09/20 11:14:24;;;;;;;4.53;1.10;;;;;;;21.24;100.00;100385.69;4946167;28;20058;-80
2023/09/20 11:16:49;;;;;;;3.08;1.20;;;;;;;21.30;100.00;100372.91;4930807;29;20055;-80
2023/09/20 11:19:15;;;;;;;11.98;1.20;;;;;;;21.20;100.00;100362.13;4943024;28;20023;-80
2023/09/20 11:21:41;;;;;;;1.95;0.70;;;;;;;21.16;100.00;100366.38;4926063;29;20487;-81
2023/09/20 11:24:09;;;;;;;3.80;0.90;;;;;;;21.46;100.00;100361.44;4927227;28;20051;-81
2023/09/20 11:26:34;;;;;;;3.40;0.93;;;;;;;21.45;100.00;100362.47;4924961;29;20020;-81
2023/09/20 11:29:00;;;;;;;3.03;0.90;;;;;;;21.29;100.00;100357.25;4931137;29;20086;-80
2023/09/20 11:31:30;;;;;;;3.10;0.88;;;;;;;21.28;100.00;100358.28;4908771;29;20040;-80
2023/09/20 11:34:06;;;;;;;5.13;1.17;;;;;;;21.20;100.00;100352.88;4934484;29;20105;-81
2023/09/20 11:36:43;;;;;;;5.53;1.95;;;;;;;21.13;100.00;100355.63;4929021;29;20019;-80
2023/09/20 11:39:08;;;;;;;4.75;0.93;;;;;;;21.03;100.00;100360.69;4930718;29;20479;-80
2023/09/20 11:41:38;;;;;;;4.47;0.85;;;;;;;21.00;100.00;100353.59;4928848;29;20067;-81
2023/09/20 11:44:06;;;;;;;7.47;1.15;;;;;;;21.09;100.00;100352.41;4910095;29;20032;-80
2023/09/20 11:46:33;;;;;;;1.77;0.80;;;;;;;20.77;100.00;100362.19;4924771;29;20027;-80
2023/09/20 11:49:04;;;;;;;6.35;0.93;;;;;;;21.00;100.00;100359.16;4926714;28;20035;-81
2023/09/20 11:51:31;;;;;;;4.40;1.17;;;;;;;21.19;100.00;100371.53;4927226;29;20408;-80
2023/09/20 11:53:59;;;;;;;6.00;1.13;;;;;;;21.13;100.00;100360.34;4918743;29;20035;-80
2023/09/20 11:56:31;;;;;;;4.35;1.17;;;;;;;21.23;100.00;100363.63;4910842;29;20035;-81
2023/09/20 11:58:59;;;;;;;4.35;0.98;;;;;;;21.20;100.00;100350.09;4943075;29;20403;-80
2023/09/20 12:01:29;;;;;;;2.08;0.90;;;;;;;21.28;100.00;100344.38;4948320;28;20099;-81
2023/09/20 12:03:54;;;;;;;4.57;0.82;;;;;;;21.27;100.00;100354.66;4926972;29;20103;-80
2023/09/20 12:06:19;;;;;;;5.22;1.45;;;;;;;21.24;100.00;100346.72;4927449;29;20479;-80
2023/09/20 12:08:45;;;;;;;4.45;1.10;;;;;;;21.39;100.00;100349.38;4941102;29;20039;-80
2023/09/20 12:11:11;;;;;;;5.97;1.10;;;;;;;21.30;100.00;100345.06;4930762;29;20045;-81
2023/09/20 12:13:36;;;;;;;3.45;0.93;;;;;;;21.34;100.00;100342.72;4929619;29;20183;-80
2023/09/20 12:16:02;;;;;;;4.13;1.02;;;;;;;21.45;100.00;100351.34;4927130;28;20463;-81
2023/09/20 12:18:27;;;;;;;7.03;1.15;;;;;;;21.56;100.00;100343.50;4912455;29;20050;-81
2023/09/20 12:20:55;;;;;;;8.32;1.40;;;;;;;21.59;100.00;100343.94;4926771;29;20876;-80
2023/09/20 12:23:20;;;;;;;7.38;1.10;;;;;;;21.77;100.00;100336.94;4941049;28;20035;-81
2023/09/20 12:25:46;;;;;;;6.25;1.00;;;;;;;21.46;100.00;100347.50;4925461;29;20046;-81
2023/09/20 12:28:11;;;;;;;4.30;1.08;;;;;;;21.47;100.00;100345.56;4912189;29;20559;-80
2023/09/20 12:30:39;;;;;;;5.47;1.13;;;;;;;21.40;100.00;100334.38;4919415;29;20035;-81
2023/09/20 12:33:07;;;;;;;9.90;1.02;;;;;;;21.35;100.00;100334.16;4947547;29;20063;-81
2023/09/20 12:35:33;;;;;;;5.07;1.00;;;;;;;21.16;100.00;100327.38;4919322;29;20038;-81
2023/09/20 12:37:58;;;;;;;4.80;0.88;;;;;;;21.20;100.00;100334.28;4929818;29;20069;-81
2023/09/20 12:40:24;;;;;;;5.15;1.30;;;;;;;21.24;100.00;100334.72;4910567;29;20059;-80
2023/09/20 12:42:50;;;;;;;5.70;1.13;;;;;;;21.57;100.00;100325.72;4946036;29;20047;-81
2023/09/20 12:45:15;;;;;;;6.10;1.38;;;;;;;21.56;100.00;100329.56;4928467;29;20050;-80
2023/09/20 12:47:42;;;;;;;3.28;1.00;;;;;;;21.71;100.00;100321.94;4934304;29;20040;-81
2023/09/20 12:50:12;;;;;;;5.68;0.90;;;;;;;21.51;100.00;100320.97;4943373;29;20035;-81
2023/09/20 12:52:38;;;;;;;8.55;1.42;;;;;;;21.71;100.00;100319.16;4930346;29;20027;-80
2023/09/20 12:55:05;;;;;;;6.15;1.23;;;;;;;21.73;100.00;100317.00;4941661;29;20023;-81
2023/09/20 12:57:30;;;;;;;4.18;1.10;;;;;;;21.85;100.00;100320.03;4936213;29;20032;-81
2023/09/20 12:59:57;;;;;;;4.25;1.13;;;;;;;21.69;100.00;100312.91;4918348;29;20070;-81
2023/09/20 13:02:24;;;;;;;2.25;0.93;;;;;;;21.47;100.00;100314.94;4945182;29;20055;-81
2023/09/20 13:04:52;;;;;;;6.07;1.38;;;;;;;21.44;100.00;100318.97;4914844;29;20036;-81
2023/09/20 13:07:18;;;;;;;3.15;1.20;;;;;;;21.51;100.00;100312.63;4915529;29;20083;-81
2023/09/20 13:09:44;;;;;;;6.90;1.20;;;;;;;21.47;100.00;100301.00;4929659;29;20035;-81
2023/09/20 13:12:12;;;;;;;3.05;1.20;;;;;;;21.46;100.00;100305.72;4945302;29;20024;-81
2023/09/20 13:14:37;;;;;;;3.28;1.30;;;;;;;21.33;100.00;100297.25;4933566;28;20033;-81
2023/09/20 13:17:03;;;;;;;7.20;1.35;;;;;;;21.25;100.00;100295.53;4920608;29;20406;-81
2023/09/20 13:19:28;;;;;;;2.63;0.98;;;;;;;21.30;100.00;100297.72;4932155;29;20038;-81